sensor_id;sensor_type;location;lat;lon;timestamp;P1;durP1;ratioP1;P2;durP2;ratioP2
71351;SDS011;59159;51.652;4.864;2023-04-03T00:01:07;4.32;;;1.20;;
71351;SDS011;59159;51.652;4.864;2023-04-03T00:03:33;5.37;;;1.30;;
71351;SDS011;59159;51.652;4.864;2023-04-03T00:06:00;4.05;;;1.00;;
71351;SDS011;59159;51.652;4.864;2023-04-03T00:08:26;4.07;;;1.15;;
71351;SDS011;59159;51.652;4.864;2023-04-03T00:10:52;5.57;;;1.10;;
71351;SDS011;59159;51.652;4.864;2023-04-03T00:13:18;4.03;;;1.30;;
71351;SDS011;59159;51.652;4.864;2023-04-03T00:15:44;5.38;;;1.30;;
71351;SDS011;59159;51.652;4.864;2023-04-03T00:18:10;5.63;;;1.40;;
71351;SDS011;59159;51.652;4.864;2023-04-03T00:20:36;4.07;;;0.98;;
71351;SDS011;59159;51.652;4.864;2023-04-03T00:23:02;4.25;;;1.20;;
71351;SDS011;59159;51.652;4.864;2023-04-03T00:25:28;4.60;;;1.33;;
71351;SDS011;59159;51.652;4.864;2023-04-03T00:27:54;5.70;;;1.17;;
71351;SDS011;59159;51.652;4.864;2023-04-03T00:30:21;3.35;;;0.98;;
71351;SDS011;59159;51.652;4.864;2023-04-03T00:32:48;4.00;;;1.20;;
71351;SDS011;59159;51.652;4.864;2023-04-03T00:35:14;5.60;;;1.20;;
71351;SDS011;59159;51.652;4.864;2023-04-03T00:37:43;4.18;;;1.02;;
71351;SDS011;59159;51.652;4.864;2023-04-03T00:40:10;4.82;;;1.17;;
71351;SDS011;59159;51.652;4.864;2023-04-03T00:42:37;4.13;;;1.10;;
71351;SDS011;59159;51.652;4.864;2023-04-03T00:47:29;4.20;;;1.33;;
71351;SDS011;59159;51.652;4.864;2023-04-03T00:49:56;3.75;;;0.93;;
71351;SDS011;59159;51.652;4.864;2023-04-03T00:52:23;3.23;;;1.00;;
71351;SDS011;59159;51.652;4.864;2023-04-03T00:54:51;4.03;;;1.10;;
71351;SDS011;59159;51.652;4.864;2023-04-03T00:57:17;5.78;;;1.10;;
71351;SDS011;59159;51.652;4.864;2023-04-03T00:59:45;4.63;;;1.07;;
71351;SDS011;59159;51.652;4.864;2023-04-03T01:02:12;4.90;;;1.10;;
71351;SDS011;59159;51.652;4.864;2023-04-03T01:04:39;4.20;;;1.30;;
71351;SDS011;59159;51.652;4.864;2023-04-03T01:07:10;3.30;;;0.90;;
71351;SDS011;59159;51.652;4.864;2023-04-03T01:09:36;3.92;;;1.00;;
71351;SDS011;59159;51.652;4.864;2023-04-03T01:12:22;4.55;;;1.08;;
71351;SDS011;59159;51.652;4.864;2023-04-03T01:14:50;2.95;;;0.80;;
71351;SDS011;59159;51.652;4.864;2023-04-03T01:25:14;3.07;;;0.87;;
71351;SDS011;59159;51.652;4.864;2023-04-03T01:27:41;4.45;;;0.90;;
71351;SDS011;59159;51.652;4.864;2023-04-03T01:30:07;4.38;;;1.20;;
71351;SDS011;59159;51.652;4.864;2023-04-03T01:32:33;3.40;;;0.80;;
71351;SDS011;59159;51.652;4.864;2023-04-03T01:34:59;4.18;;;0.98;;
71351;SDS011;59159;51.652;4.864;2023-04-03T01:37:25;3.58;;;1.00;;
71351;SDS011;59159;51.652;4.864;2023-04-03T01:39:51;4.00;;;0.93;;
71351;SDS011;59159;51.652;4.864;2023-04-03T01:42:17;3.53;;;1.00;;
71351;SDS011;59159;51.652;4.864;2023-04-03T01:44:43;3.20;;;1.00;;
71351;SDS011;59159;51.652;4.864;2023-04-03T01:47:10;4.82;;;1.10;;
71351;SDS011;59159;51.652;4.864;2023-04-03T01:49:36;2.57;;;0.70;;
71351;SDS011;59159;51.652;4.864;2023-04-03T01:52:02;3.50;;;0.93;;
71351;SDS011;59159;51.652;4.864;2023-04-03T01:54:28;3.22;;;0.90;;
71351;SDS011;59159;51.652;4.864;2023-04-03T01:56:54;3.40;;;0.93;;
71351;SDS011;59159;51.652;4.864;2023-04-03T01:59:20;4.78;;;0.82;;
71351;SDS011;59159;51.652;4.864;2023-04-03T02:01:46;3.25;;;0.73;;
71351;SDS011;59159;51.652;4.864;2023-04-03T02:04:12;4.07;;;0.98;;
71351;SDS011;59159;51.652;4.864;2023-04-03T02:06:38;3.27;;;0.80;;
71351;SDS011;59159;51.652;4.864;2023-04-03T02:09:04;3.88;;;0.75;;
71351;SDS011;59159;51.652;4.864;2023-04-03T02:11:30;3.40;;;1.05;;
71351;SDS011;59159;51.652;4.864;2023-04-03T02:13:56;4.07;;;1.00;;
71351;SDS011;59159;51.652;4.864;2023-04-03T02:16:22;3.92;;;0.70;;
71351;SDS011;59159;51.652;4.864;2023-04-03T02:18:49;3.35;;;0.80;;
71351;SDS011;59159;51.652;4.864;2023-04-03T02:21:15;3.77;;;0.80;;
71351;SDS011;59159;51.652;4.864;2023-04-03T02:23:41;2.60;;;0.60;;
71351;SDS011;59159;51.652;4.864;2023-04-03T02:26:11;4.43;;;1.00;;
71351;SDS011;59159;51.652;4.864;2023-04-03T02:28:37;3.38;;;0.80;;
71351;SDS011;59159;51.652;4.864;2023-04-03T02:31:04;4.63;;;0.90;;
71351;SDS011;59159;51.652;4.864;2023-04-03T02:33:31;3.47;;;1.02;;
71351;SDS011;59159;51.652;4.864;2023-04-03T02:35:57;3.30;;;0.73;;
71351;SDS011;59159;51.652;4.864;2023-04-03T02:38:23;2.70;;;0.80;;
71351;SDS011;59159;51.652;4.864;2023-04-03T02:40:50;4.10;;;0.93;;
71351;SDS011;59159;51.652;4.864;2023-04-03T02:43:17;3.60;;;0.90;;
71351;SDS011;59159;51.652;4.864;2023-04-03T02:45:43;3.20;;;0.80;;
71351;SDS011;59159;51.652;4.864;2023-04-03T02:48:09;3.35;;;0.80;;
71351;SDS011;59159;51.652;4.864;2023-04-03T02:50:35;3.78;;;0.90;;
71351;SDS011;59159;51.652;4.864;2023-04-03T02:53:01;3.47;;;1.02;;
71351;SDS011;59159;51.652;4.864;2023-04-03T02:55:27;3.27;;;1.13;;
71351;SDS011;59159;51.652;4.864;2023-04-03T02:57:53;2.92;;;0.80;;
71351;SDS011;59159;51.652;4.864;2023-04-03T03:00:19;4.15;;;0.80;;
71351;SDS011;59159;51.652;4.864;2023-04-03T03:02:45;3.57;;;0.77;;
71351;SDS011;59159;51.652;4.864;2023-04-03T03:05:11;3.08;;;0.70;;
71351;SDS011;59159;51.652;4.864;2023-04-03T03:07:37;4.55;;;0.80;;
71351;SDS011;59159;51.652;4.864;2023-04-03T03:10:03;2.97;;;0.77;;
71351;SDS011;59159;51.652;4.864;2023-04-03T03:12:31;3.30;;;0.68;;
71351;SDS011;59159;51.652;4.864;2023-04-03T03:14:57;3.35;;;0.80;;
71351;SDS011;59159;51.652;4.864;2023-04-03T03:17:23;2.70;;;0.80;;
71351;SDS011;59159;51.652;4.864;2023-04-03T03:19:48;3.10;;;0.90;;
71351;SDS011;59159;51.652;4.864;2023-04-03T03:22:15;4.22;;;0.70;;
71351;SDS011;59159;51.652;4.864;2023-04-03T03:24:42;3.40;;;0.73;;
71351;SDS011;59159;51.652;4.864;2023-04-03T03:27:08;3.37;;;0.80;;
71351;SDS011;59159;51.652;4.864;2023-04-03T03:29:34;2.88;;;0.82;;
71351;SDS011;59159;51.652;4.864;2023-04-03T03:31:59;2.80;;;0.80;;
71351;SDS011;59159;51.652;4.864;2023-04-03T03:34:26;2.50;;;0.90;;
71351;SDS011;59159;51.652;4.864;2023-04-03T03:36:52;2.40;;;0.73;;
71351;SDS011;59159;51.652;4.864;2023-04-03T03:39:18;2.97;;;0.90;;
71351;SDS011;59159;51.652;4.864;2023-04-03T03:41:44;2.90;;;0.90;;
71351;SDS011;59159;51.652;4.864;2023-04-03T03:44:10;2.77;;;0.83;;
71351;SDS011;59159;51.652;4.864;2023-04-03T03:46:36;3.17;;;1.17;;
71351;SDS011;59159;51.652;4.864;2023-04-03T03:49:01;2.45;;;0.73;;
71351;SDS011;59159;51.652;4.864;2023-04-03T03:51:28;2.63;;;0.60;;
71351;SDS011;59159;51.652;4.864;2023-04-03T03:53:54;3.65;;;1.00;;
71351;SDS011;59159;51.652;4.864;2023-04-03T03:56:19;4.80;;;0.88;;
71351;SDS011;59159;51.652;4.864;2023-04-03T03:58:45;4.93;;;1.07;;
71351;SDS011;59159;51.652;4.864;2023-04-03T04:01:11;2.70;;;0.70;;
71351;SDS011;59159;51.652;4.864;2023-04-03T04:03:38;5.07;;;1.00;;
71351;SDS011;59159;51.652;4.864;2023-04-03T04:06:04;3.42;;;0.82;;
71351;SDS011;59159;51.652;4.864;2023-04-03T04:08:30;4.03;;;0.93;;
71351;SDS011;59159;51.652;4.864;2023-04-03T04:10:56;8.05;;;1.20;;
71351;SDS011;59159;51.652;4.864;2023-04-03T04:13:22;4.28;;;0.70;;
71351;SDS011;59159;51.652;4.864;2023-04-03T04:15:48;3.83;;;0.90;;
71351;SDS011;59159;51.652;4.864;2023-04-03T04:18:14;2.45;;;0.80;;
71351;SDS011;59159;51.652;4.864;2023-04-03T04:20:40;3.25;;;0.80;;
71351;SDS011;59159;51.652;4.864;2023-04-03T04:23:07;3.93;;;1.57;;
71351;SDS011;59159;51.652;4.864;2023-04-03T04:25:33;3.72;;;0.80;;
71351;SDS011;59159;51.652;4.864;2023-04-03T04:27:59;3.70;;;0.90;;
71351;SDS011;59159;51.652;4.864;2023-04-03T04:30:25;5.18;;;1.20;;
71351;SDS011;59159;51.652;4.864;2023-04-03T04:32:52;4.03;;;1.10;;
71351;SDS011;59159;51.652;4.864;2023-04-03T04:35:18;5.80;;;1.00;;
71351;SDS011;59159;51.652;4.864;2023-04-03T04:37:44;5.35;;;1.38;;
71351;SDS011;59159;51.652;4.864;2023-04-03T04:40:10;4.40;;;0.77;;
71351;SDS011;59159;51.652;4.864;2023-04-03T04:42:36;3.53;;;0.90;;
71351;SDS011;59159;51.652;4.864;2023-04-03T04:45:02;2.97;;;1.00;;
71351;SDS011;59159;51.652;4.864;2023-04-03T04:47:29;4.80;;;1.40;;
71351;SDS011;59159;51.652;4.864;2023-04-03T04:49:55;4.90;;;1.77;;
71351;SDS011;59159;51.652;4.864;2023-04-03T04:52:21;4.25;;;1.50;;
71351;SDS011;59159;51.652;4.864;2023-04-03T04:54:47;4.45;;;1.52;;
71351;SDS011;59159;51.652;4.864;2023-04-03T04:57:13;4.87;;;1.70;;
71351;SDS011;59159;51.652;4.864;2023-04-03T04:59:39;4.47;;;1.60;;
71351;SDS011;59159;51.652;4.864;2023-04-03T05:02:05;6.07;;;1.58;;
71351;SDS011;59159;51.652;4.864;2023-04-03T05:04:31;3.67;;;1.37;;
71351;SDS011;59159;51.652;4.864;2023-04-03T05:06:58;4.90;;;1.42;;
71351;SDS011;59159;51.652;4.864;2023-04-03T05:09:24;3.72;;;1.10;;
71351;SDS011;59159;51.652;4.864;2023-04-03T05:11:50;4.13;;;1.30;;
71351;SDS011;59159;51.652;4.864;2023-04-03T05:14:16;4.43;;;1.30;;
71351;SDS011;59159;51.652;4.864;2023-04-03T05:16:42;3.35;;;0.95;;
71351;SDS011;59159;51.652;4.864;2023-04-03T05:19:08;3.63;;;1.13;;
71351;SDS011;59159;51.652;4.864;2023-04-03T05:21:34;4.50;;;1.30;;
71351;SDS011;59159;51.652;4.864;2023-04-03T05:24:01;3.15;;;1.08;;
71351;SDS011;59159;51.652;4.864;2023-04-03T05:26:28;4.07;;;1.20;;
71351;SDS011;59159;51.652;4.864;2023-04-03T05:28:54;4.50;;;1.40;;
71351;SDS011;59159;51.652;4.864;2023-04-03T05:31:21;4.22;;;1.20;;
71351;SDS011;59159;51.652;4.864;2023-04-03T05:33:47;3.97;;;1.10;;
71351;SDS011;59159;51.652;4.864;2023-04-03T05:36:13;3.90;;;1.10;;
71351;SDS011;59159;51.652;4.864;2023-04-03T05:38:39;4.40;;;1.10;;
71351;SDS011;59159;51.652;4.864;2023-04-03T05:41:05;4.97;;;1.25;;
71351;SDS011;59159;51.652;4.864;2023-04-03T05:43:31;2.90;;;1.00;;
71351;SDS011;59159;51.652;4.864;2023-04-03T05:45:59;3.30;;;1.07;;
71351;SDS011;59159;51.652;4.864;2023-04-03T05:48:25;4.07;;;1.20;;
71351;SDS011;59159;51.652;4.864;2023-04-03T05:50:51;3.50;;;1.15;;
71351;SDS011;59159;51.652;4.864;2023-04-03T05:53:18;4.00;;;0.90;;
71351;SDS011;59159;51.652;4.864;2023-04-03T05:55:47;4.20;;;1.10;;
71351;SDS011;59159;51.652;4.864;2023-04-03T05:58:12;2.75;;;1.00;;
71351;SDS011;59159;51.652;4.864;2023-04-03T06:00:39;5.10;;;1.13;;
71351;SDS011;59159;51.652;4.864;2023-04-03T06:03:05;3.95;;;1.20;;
71351;SDS011;59159;51.652;4.864;2023-04-03T06:05:31;4.22;;;1.20;;
71351;SDS011;59159;51.652;4.864;2023-04-03T06:07:57;3.47;;;0.80;;
71351;SDS011;59159;51.652;4.864;2023-04-03T06:10:23;3.13;;;0.87;;
71351;SDS011;59159;51.652;4.864;2023-04-03T06:12:49;3.28;;;1.00;;
71351;SDS011;59159;51.652;4.864;2023-04-03T06:15:16;3.45;;;1.10;;
71351;SDS011;59159;51.652;4.864;2023-04-03T06:17:42;3.73;;;1.10;;
71351;SDS011;59159;51.652;4.864;2023-04-03T06:20:08;3.67;;;0.95;;
71351;SDS011;59159;51.652;4.864;2023-04-03T06:22:35;3.25;;;0.70;;
71351;SDS011;59159;51.652;4.864;2023-04-03T06:25:01;2.70;;;0.90;;
71351;SDS011;59159;51.652;4.864;2023-04-03T06:27:27;3.92;;;0.80;;
71351;SDS011;59159;51.652;4.864;2023-04-03T06:29:53;3.88;;;0.80;;
71351;SDS011;59159;51.652;4.864;2023-04-03T06:32:19;3.72;;;0.80;;
71351;SDS011;59159;51.652;4.864;2023-04-03T06:34:45;4.13;;;0.80;;
71351;SDS011;59159;51.652;4.864;2023-04-03T06:37:15;3.78;;;1.20;;
71351;SDS011;59159;51.652;4.864;2023-04-03T06:39:42;3.30;;;0.95;;
71351;SDS011;59159;51.652;4.864;2023-04-03T06:42:08;3.03;;;0.80;;
71351;SDS011;59159;51.652;4.864;2023-04-03T06:44:34;3.00;;;0.80;;
71351;SDS011;59159;51.652;4.864;2023-04-03T06:47:00;4.10;;;0.90;;
71351;SDS011;59159;51.652;4.864;2023-04-03T06:49:26;3.63;;;1.00;;
71351;SDS011;59159;51.652;4.864;2023-04-03T06:51:53;3.92;;;1.13;;
71351;SDS011;59159;51.652;4.864;2023-04-03T06:54:20;4.00;;;0.88;;
71351;SDS011;59159;51.652;4.864;2023-04-03T06:56:46;3.22;;;0.90;;
71351;SDS011;59159;51.652;4.864;2023-04-03T06:59:12;3.23;;;0.70;;
71351;SDS011;59159;51.652;4.864;2023-04-03T07:01:39;4.32;;;0.98;;
71351;SDS011;59159;51.652;4.864;2023-04-03T07:04:05;2.67;;;0.80;;
71351;SDS011;59159;51.652;4.864;2023-04-03T07:06:32;3.30;;;0.80;;
71351;SDS011;59159;51.652;4.864;2023-04-03T07:08:58;2.78;;;0.80;;
71351;SDS011;59159;51.652;4.864;2023-04-03T07:11:25;3.30;;;0.80;;
71351;SDS011;59159;51.652;4.864;2023-04-03T07:13:51;2.93;;;0.80;;
71351;SDS011;59159;51.652;4.864;2023-04-03T07:16:18;3.28;;;0.80;;
71351;SDS011;59159;51.652;4.864;2023-04-03T07:18:44;3.35;;;0.80;;
71351;SDS011;59159;51.652;4.864;2023-04-03T07:21:11;3.17;;;0.80;;
71351;SDS011;59159;51.652;4.864;2023-04-03T07:23:37;2.73;;;0.90;;
71351;SDS011;59159;51.652;4.864;2023-04-03T07:26:03;3.05;;;0.80;;
71351;SDS011;59159;51.652;4.864;2023-04-03T07:28:29;2.20;;;0.60;;
71351;SDS011;59159;51.652;4.864;2023-04-03T07:31:03;3.00;;;0.70;;
71351;SDS011;59159;51.652;4.864;2023-04-03T07:33:30;3.83;;;0.80;;
71351;SDS011;59159;51.652;4.864;2023-04-03T07:35:56;3.53;;;0.82;;
71351;SDS011;59159;51.652;4.864;2023-04-03T07:38:22;2.30;;;0.70;;
71351;SDS011;59159;51.652;4.864;2023-04-03T07:40:49;2.85;;;0.60;;
71351;SDS011;59159;51.652;4.864;2023-04-03T07:43:16;2.95;;;0.77;;
71351;SDS011;59159;51.652;4.864;2023-04-03T07:45:42;2.53;;;0.73;;
71351;SDS011;59159;51.652;4.864;2023-04-03T07:48:08;3.07;;;0.77;;
71351;SDS011;59159;51.652;4.864;2023-04-03T07:50:35;2.83;;;0.77;;
71351;SDS011;59159;51.652;4.864;2023-04-03T07:53:01;4.95;;;0.90;;
71351;SDS011;59159;51.652;4.864;2023-04-03T07:55:27;3.33;;;0.70;;
71351;SDS011;59159;51.652;4.864;2023-04-03T07:57:54;2.55;;;0.90;;
71351;SDS011;59159;51.652;4.864;2023-04-03T08:00:20;3.90;;;0.85;;
71351;SDS011;59159;51.652;4.864;2023-04-03T08:02:46;2.93;;;0.63;;
71351;SDS011;59159;51.652;4.864;2023-04-03T08:05:19;3.00;;;0.73;;
71351;SDS011;59159;51.652;4.864;2023-04-03T08:07:46;2.72;;;0.70;;
71351;SDS011;59159;51.652;4.864;2023-04-03T08:10:12;3.25;;;1.00;;
71351;SDS011;59159;51.652;4.864;2023-04-03T08:12:38;3.00;;;0.70;;
71351;SDS011;59159;51.652;4.864;2023-04-03T08:15:05;4.00;;;0.75;;
71351;SDS011;59159;51.652;4.864;2023-04-03T08:17:32;3.08;;;0.77;;
71351;SDS011;59159;51.652;4.864;2023-04-03T08:19:58;2.97;;;0.60;;
71351;SDS011;59159;51.652;4.864;2023-04-03T08:22:23;3.97;;;0.80;;
71351;SDS011;59159;51.652;4.864;2023-04-03T08:24:50;4.63;;;1.02;;
71351;SDS011;59159;51.652;4.864;2023-04-03T08:27:16;2.87;;;0.80;;
71351;SDS011;59159;51.652;4.864;2023-04-03T08:29:42;4.13;;;0.70;;
71351;SDS011;59159;51.652;4.864;2023-04-03T08:32:08;2.33;;;0.70;;
71351;SDS011;59159;51.652;4.864;2023-04-03T08:34:34;4.22;;;1.17;;
71351;SDS011;59159;51.652;4.864;2023-04-03T08:37:01;3.70;;;0.90;;
71351;SDS011;59159;51.652;4.864;2023-04-03T08:39:27;5.60;;;1.00;;
71351;SDS011;59159;51.652;4.864;2023-04-03T08:41:55;4.40;;;1.00;;
71351;SDS011;59159;51.652;4.864;2023-04-03T08:44:39;4.30;;;1.73;;
71351;SDS011;59159;51.652;4.864;2023-04-03T08:49:41;4.07;;;1.00;;
71351;SDS011;59159;51.652;4.864;2023-04-03T08:52:36;4.10;;;1.17;;
71351;SDS011;59159;51.652;4.864;2023-04-03T08:55:04;2.97;;;1.17;;
71351;SDS011;59159;51.652;4.864;2023-04-03T08:57:35;3.45;;;1.02;;
71351;SDS011;59159;51.652;4.864;2023-04-03T09:00:06;3.83;;;1.00;;
71351;SDS011;59159;51.652;4.864;2023-04-03T09:02:41;4.07;;;1.30;;
71351;SDS011;59159;51.652;4.864;2023-04-03T09:07:59;3.88;;;1.00;;
71351;SDS011;59159;51.652;4.864;2023-04-03T09:10:29;4.33;;;1.00;;
71351;SDS011;59159;51.652;4.864;2023-04-03T09:13:01;5.88;;;1.08;;
71351;SDS011;59159;51.652;4.864;2023-04-03T09:15:32;3.72;;;0.93;;
71351;SDS011;59159;51.652;4.864;2023-04-03T09:20:49;3.95;;;1.27;;
71351;SDS011;59159;51.652;4.864;2023-04-03T09:23:23;3.25;;;0.90;;
71351;SDS011;59159;51.652;4.864;2023-04-03T09:25:51;5.35;;;1.10;;
71351;SDS011;59159;51.652;4.864;2023-04-03T09:28:19;4.17;;;1.00;;
71351;SDS011;59159;51.652;4.864;2023-04-03T09:30:45;3.20;;;0.90;;
71351;SDS011;59159;51.652;4.864;2023-04-03T09:33:11;4.03;;;1.27;;
71351;SDS011;59159;51.652;4.864;2023-04-03T09:35:38;5.53;;;1.47;;
71351;SDS011;59159;51.652;4.864;2023-04-03T09:40:38;3.00;;;0.80;;
71351;SDS011;59159;51.652;4.864;2023-04-03T09:45:43;3.67;;;1.00;;
71351;SDS011;59159;51.652;4.864;2023-04-03T09:51:01;3.85;;;1.20;;
71351;SDS011;59159;51.652;4.864;2023-04-03T09:55:58;4.82;;;0.90;;
71351;SDS011;59159;51.652;4.864;2023-04-03T09:58:27;3.13;;;1.00;;
71351;SDS011;59159;51.652;4.864;2023-04-03T10:00:57;4.93;;;1.00;;
71351;SDS011;59159;51.652;4.864;2023-04-03T10:03:31;3.55;;;0.98;;
71351;SDS011;59159;51.652;4.864;2023-04-03T10:05:58;3.38;;;0.93;;
71351;SDS011;59159;51.652;4.864;2023-04-03T10:08:28;4.13;;;1.10;;
71351;SDS011;59159;51.652;4.864;2023-04-03T10:11:12;3.17;;;0.82;;
71351;SDS011;59159;51.652;4.864;2023-04-03T10:13:55;3.65;;;1.17;;
71351;SDS011;59159;51.652;4.864;2023-04-03T10:16:25;3.75;;;1.08;;
71351;SDS011;59159;51.652;4.864;2023-04-03T10:21:31;3.30;;;1.00;;
71351;SDS011;59159;51.652;4.864;2023-04-03T10:24:03;4.07;;;1.23;;
71351;SDS011;59159;51.652;4.864;2023-04-03T10:26:45;2.53;;;0.80;;
71351;SDS011;59159;51.652;4.864;2023-04-03T10:34:40;2.60;;;0.70;;
71351;SDS011;59159;51.652;4.864;2023-04-03T10:47:20;3.33;;;0.95;;
71351;SDS011;59159;51.652;4.864;2023-04-03T10:52:37;3.83;;;0.97;;
71351;SDS011;59159;51.652;4.864;2023-04-03T10:55:14;4.20;;;0.90;;
71351;SDS011;59159;51.652;4.864;2023-04-03T10:57:47;2.72;;;0.77;;
71351;SDS011;59159;51.652;4.864;2023-04-03T11:00:14;2.97;;;0.77;;
71351;SDS011;59159;51.652;4.864;2023-04-03T11:02:48;3.25;;;0.73;;
71351;SDS011;59159;51.652;4.864;2023-04-03T11:07:43;2.25;;;0.65;;
71351;SDS011;59159;51.652;4.864;2023-04-03T11:10:13;3.00;;;0.90;;
71351;SDS011;59159;51.652;4.864;2023-04-03T11:12:46;4.18;;;1.38;;
71351;SDS011;59159;51.652;4.864;2023-04-03T11:15:15;3.75;;;1.00;;
71351;SDS011;59159;51.652;4.864;2023-04-03T11:17:43;2.47;;;0.70;;
71351;SDS011;59159;51.652;4.864;2023-04-03T11:20:19;2.97;;;0.60;;
71351;SDS011;59159;51.652;4.864;2023-04-03T11:22:53;2.63;;;0.77;;
71351;SDS011;59159;51.652;4.864;2023-04-03T11:25:23;2.57;;;0.70;;
71351;SDS011;59159;51.652;4.864;2023-04-03T11:27:56;3.40;;;1.17;;
71351;SDS011;59159;51.652;4.864;2023-04-03T11:30:41;3.17;;;0.75;;
71351;SDS011;59159;51.652;4.864;2023-04-03T11:33:15;2.92;;;0.80;;
71351;SDS011;59159;51.652;4.864;2023-04-03T11:35:44;5.20;;;0.90;;
71351;SDS011;59159;51.652;4.864;2023-04-03T11:38:14;2.65;;;0.80;;
71351;SDS011;59159;51.652;4.864;2023-04-03T11:40:43;3.63;;;0.80;;
71351;SDS011;59159;51.652;4.864;2023-04-03T11:46:03;3.33;;;0.70;;
71351;SDS011;59159;51.652;4.864;2023-04-03T11:50:59;2.17;;;0.70;;
71351;SDS011;59159;51.652;4.864;2023-04-03T11:55:52;3.50;;;0.80;;
71351;SDS011;59159;51.652;4.864;2023-04-03T11:58:23;2.28;;;0.68;;
71351;SDS011;59159;51.652;4.864;2023-04-03T12:13:40;2.28;;;0.60;;
71351;SDS011;59159;51.652;4.864;2023-04-03T12:21:21;2.53;;;0.63;;
71351;SDS011;59159;51.652;4.864;2023-04-03T12:24:29;4.18;;;0.82;;
71351;SDS011;59159;51.652;4.864;2023-04-03T12:29:25;2.50;;;0.70;;
71351;SDS011;59159;51.652;4.864;2023-04-03T12:32:40;2.78;;;0.50;;
71351;SDS011;59159;51.652;4.864;2023-04-03T12:34:45;3.00;;;0.70;;
71351;SDS011;59159;51.652;4.864;2023-04-03T12:37:23;3.17;;;0.70;;
71351;SDS011;59159;51.652;4.864;2023-04-03T12:45:18;3.63;;;0.80;;
71351;SDS011;59159;51.652;4.864;2023-04-03T12:47:45;1.92;;;0.68;;
71351;SDS011;59159;51.652;4.864;2023-04-03T12:50:16;2.20;;;0.68;;
71351;SDS011;59159;51.652;4.864;2023-04-03T12:52:45;2.17;;;0.50;;
71351;SDS011;59159;51.652;4.864;2023-04-03T12:55:14;1.88;;;0.70;;
71351;SDS011;59159;51.652;4.864;2023-04-03T12:57:41;1.90;;;0.50;;
71351;SDS011;59159;51.652;4.864;2023-04-03T13:02:57;4.03;;;0.70;;
71351;SDS011;59159;51.652;4.864;2023-04-03T13:05:23;2.38;;;0.60;;
71351;SDS011;59159;51.652;4.864;2023-04-03T13:08:04;2.20;;;0.70;;
71351;SDS011;59159;51.652;4.864;2023-04-03T13:10:31;2.33;;;0.70;;
71351;SDS011;59159;51.652;4.864;2023-04-03T13:12:58;1.83;;;0.60;;
71351;SDS011;59159;51.652;4.864;2023-04-03T13:15:45;2.42;;;0.70;;
71351;SDS011;59159;51.652;4.864;2023-04-03T13:20:48;1.88;;;0.50;;
71351;SDS011;59159;51.652;4.864;2023-04-03T13:23:15;2.55;;;0.60;;
71351;SDS011;59159;51.652;4.864;2023-04-03T13:25:43;2.17;;;0.53;;
71351;SDS011;59159;51.652;4.864;2023-04-03T13:28:11;2.95;;;0.63;;
71351;SDS011;59159;51.652;4.864;2023-04-03T13:30:39;2.38;;;0.45;;
71351;SDS011;59159;51.652;4.864;2023-04-03T13:33:17;3.23;;;0.50;;
71351;SDS011;59159;51.652;4.864;2023-04-03T13:35:45;1.40;;;0.50;;
71351;SDS011;59159;51.652;4.864;2023-04-03T13:43:36;1.77;;;0.50;;
71351;SDS011;59159;51.652;4.864;2023-04-03T13:48:39;3.28;;;0.60;;
71351;SDS011;59159;51.652;4.864;2023-04-03T13:51:12;4.03;;;0.70;;
71351;SDS011;59159;51.652;4.864;2023-04-03T13:53:46;2.35;;;0.60;;
71351;SDS011;59159;51.652;4.864;2023-04-03T13:56:18;2.92;;;0.63;;
71351;SDS011;59159;51.652;4.864;2023-04-03T14:01:35;1.95;;;0.50;;
71351;SDS011;59159;51.652;4.864;2023-04-03T14:04:10;2.85;;;0.70;;
71351;SDS011;59159;51.652;4.864;2023-04-03T14:06:36;2.67;;;0.80;;
71351;SDS011;59159;51.652;4.864;2023-04-03T14:09:02;1.40;;;0.50;;
71351;SDS011;59159;51.652;4.864;2023-04-03T14:11:30;1.88;;;0.50;;
71351;SDS011;59159;51.652;4.864;2023-04-03T14:13:57;2.45;;;0.50;;
71351;SDS011;59159;51.652;4.864;2023-04-03T14:16:27;3.20;;;0.70;;
71351;SDS011;59159;51.652;4.864;2023-04-03T14:18:54;1.42;;;0.50;;
71351;SDS011;59159;51.652;4.864;2023-04-03T14:21:20;4.55;;;0.73;;
71351;SDS011;59159;51.652;4.864;2023-04-03T14:23:46;2.13;;;0.67;;
71351;SDS011;59159;51.652;4.864;2023-04-03T14:26:14;1.90;;;0.40;;
71351;SDS011;59159;51.652;4.864;2023-04-03T14:28:41;2.10;;;0.60;;
71351;SDS011;59159;51.652;4.864;2023-04-03T14:31:08;2.42;;;0.60;;
71351;SDS011;59159;51.652;4.864;2023-04-03T14:33:36;2.60;;;0.50;;
71351;SDS011;59159;51.652;4.864;2023-04-03T14:36:05;2.50;;;0.50;;
71351;SDS011;59159;51.652;4.864;2023-04-03T14:38:36;2.20;;;0.65;;
71351;SDS011;59159;51.652;4.864;2023-04-03T14:41:02;2.33;;;0.50;;
71351;SDS011;59159;51.652;4.864;2023-04-03T14:43:28;1.50;;;0.43;;
71351;SDS011;59159;51.652;4.864;2023-04-03T14:45:55;1.65;;;0.40;;
71351;SDS011;59159;51.652;4.864;2023-04-03T14:48:22;2.87;;;0.80;;
71351;SDS011;59159;51.652;4.864;2023-04-03T14:50:49;2.33;;;0.60;;
71351;SDS011;59159;51.652;4.864;2023-04-03T14:53:16;1.75;;;0.45;;
71351;SDS011;59159;51.652;4.864;2023-04-03T14:55:46;2.67;;;0.60;;
71351;SDS011;59159;51.652;4.864;2023-04-03T14:58:15;2.83;;;0.60;;
71351;SDS011;59159;51.652;4.864;2023-04-03T15:00:42;2.15;;;0.50;;
71351;SDS011;59159;51.652;4.864;2023-04-03T15:03:12;1.58;;;0.50;;
71351;SDS011;59159;51.652;4.864;2023-04-03T15:05:39;1.90;;;0.50;;
71351;SDS011;59159;51.652;4.864;2023-04-03T15:08:05;2.42;;;0.65;;
71351;SDS011;59159;51.652;4.864;2023-04-03T15:10:31;2.45;;;0.60;;
71351;SDS011;59159;51.652;4.864;2023-04-03T15:12:57;2.10;;;0.50;;
71351;SDS011;59159;51.652;4.864;2023-04-03T15:15:24;2.00;;;0.50;;
71351;SDS011;59159;51.652;4.864;2023-04-03T15:17:51;2.22;;;0.50;;
71351;SDS011;59159;51.652;4.864;2023-04-03T15:20:23;1.98;;;0.40;;
71351;SDS011;59159;51.652;4.864;2023-04-03T15:22:49;1.90;;;0.80;;
71351;SDS011;59159;51.652;4.864;2023-04-03T15:25:15;2.13;;;0.50;;
71351;SDS011;59159;51.652;4.864;2023-04-03T15:27:43;2.67;;;0.50;;
71351;SDS011;59159;51.652;4.864;2023-04-03T15:30:16;2.43;;;0.50;;
71351;SDS011;59159;51.652;4.864;2023-04-03T15:32:42;1.73;;;0.47;;
71351;SDS011;59159;51.652;4.864;2023-04-03T15:35:08;2.17;;;0.50;;
71351;SDS011;59159;51.652;4.864;2023-04-03T15:37:34;3.60;;;0.70;;
71351;SDS011;59159;51.652;4.864;2023-04-03T15:40:01;1.77;;;0.40;;
71351;SDS011;59159;51.652;4.864;2023-04-03T15:42:27;3.22;;;0.77;;
71351;SDS011;59159;51.652;4.864;2023-04-03T15:44:53;3.40;;;0.60;;
71351;SDS011;59159;51.652;4.864;2023-04-03T15:47:19;2.93;;;0.60;;
71351;SDS011;59159;51.652;4.864;2023-04-03T15:49:45;4.43;;;0.70;;
71351;SDS011;59159;51.652;4.864;2023-04-03T15:52:11;2.33;;;0.40;;
71351;SDS011;59159;51.652;4.864;2023-04-03T15:54:37;2.80;;;0.60;;
71351;SDS011;59159;51.652;4.864;2023-04-03T15:57:03;1.63;;;0.50;;
71351;SDS011;59159;51.652;4.864;2023-04-03T15:59:30;2.95;;;0.60;;
71351;SDS011;59159;51.652;4.864;2023-04-03T16:01:57;2.97;;;0.60;;
71351;SDS011;59159;51.652;4.864;2023-04-03T16:04:25;2.88;;;0.60;;
71351;SDS011;59159;51.652;4.864;2023-04-03T16:06:51;3.67;;;0.68;;
71351;SDS011;59159;51.652;4.864;2023-04-03T16:09:17;2.30;;;0.70;;
71351;SDS011;59159;51.652;4.864;2023-04-03T16:11:43;3.67;;;0.70;;
71351;SDS011;59159;51.652;4.864;2023-04-03T16:14:10;2.70;;;0.60;;
71351;SDS011;59159;51.652;4.864;2023-04-03T16:16:36;2.30;;;0.68;;
71351;SDS011;59159;51.652;4.864;2023-04-03T16:19:03;2.07;;;0.50;;
71351;SDS011;59159;51.652;4.864;2023-04-03T16:21:29;4.30;;;0.75;;
71351;SDS011;59159;51.652;4.864;2023-04-03T16:23:56;6.85;;;0.80;;
71351;SDS011;59159;51.652;4.864;2023-04-03T16:26:25;2.93;;;0.67;;
71351;SDS011;59159;51.652;4.864;2023-04-03T16:28:52;4.25;;;0.93;;
71351;SDS011;59159;51.652;4.864;2023-04-03T16:31:18;2.80;;;0.68;;
71351;SDS011;59159;51.652;4.864;2023-04-03T16:33:44;3.20;;;0.70;;